sensor_id;sensor_type;location;lat;lon;timestamp;pressure;altitude;pressure_sealevel;temperature;humidity
82262;BME280;71861;52.364;6.580;2023-07-31T03:00:42;100835.69;;;15.33;88.41
82262;BME280;71861;52.364;6.580;2023-07-31T03:03:07;100822.41;;;15.34;88.53
82262;BME280;71861;52.364;6.580;2023-07-31T03:05:33;100831.69;;;15.37;88.72
82262;BME280;71861;52.364;6.580;2023-07-31T03:07:58;100821.22;;;15.37;88.54
82262;BME280;71861;52.364;6.580;2023-07-31T03:10:23;100828.09;;;15.38;88.10
82262;BME280;71861;52.364;6.580;2023-07-31T03:12:49;100829.75;;;15.39;88.42
82262;BME280;71861;52.364;6.580;2023-07-31T03:15:14;100834.59;;;15.42;88.05
82262;BME280;71861;52.364;6.580;2023-07-31T03:17:39;100834.59;;;15.42;88.16
82262;BME280;71861;52.364;6.580;2023-07-31T03:20:05;100831.78;;;15.43;88.64
82262;BME280;71861;52.364;6.580;2023-07-31T03:22:30;100835.03;;;15.45;88.11
82262;BME280;71861;52.364;6.580;2023-07-31T03:24:56;100826.16;;;15.46;88.46
82262;BME280;71861;52.364;6.580;2023-07-31T03:27:21;100825.97;;;15.48;88.54
82262;BME280;71861;52.364;6.580;2023-07-31T03:29:46;100834.47;;;15.50;88.78
82262;BME280;71861;52.364;6.580;2023-07-31T03:32:12;100833.06;;;15.54;88.64
82262;BME280;71861;52.364;6.580;2023-07-31T03:34:37;100833.31;;;15.59;88.24
82262;BME280;71861;52.364;6.580;2023-07-31T03:37:03;100827.06;;;15.60;88.73
82262;BME280;71861;52.364;6.580;2023-07-31T03:39:30;100829.31;;;15.63;88.87
82262;BME280;71861;52.364;6.580;2023-07-31T03:41:55;100829.94;;;15.65;88.74
82262;BME280;71861;52.364;6.580;2023-07-31T03:44:20;100835.81;;;15.67;88.21
82262;BME280;71861;52.364;6.580;2023-07-31T03:46:46;100832.81;;;15.70;88.34
82262;BME280;71861;52.364;6.580;2023-07-31T03:49:11;100830.78;;;15.72;88.34
82262;BME280;71861;52.364;6.580;2023-07-31T03:51:37;100832.41;;;15.73;88.22
82262;BME280;71861;52.364;6.580;2023-07-31T03:54:02;100831.22;;;15.75;88.58
82262;BME280;71861;52.364;6.580;2023-07-31T03:56:27;100825.78;;;15.77;88.87
82262;BME280;71861;52.364;6.580;2023-07-31T03:58:52;100830.66;;;15.80;88.42
82262;BME280;71861;52.364;6.580;2023-07-31T04:01:19;100821.59;;;15.82;87.91
82262;BME280;71861;52.364;6.580;2023-07-31T04:03:44;100810.94;;;15.84;88.41
82262;BME280;71861;52.364;6.580;2023-07-31T04:06:10;100831.50;;;15.87;87.95
82262;BME280;71861;52.364;6.580;2023-07-31T04:08:35;100826.09;;;15.88;88.01
82262;BME280;71861;52.364;6.580;2023-07-31T04:11:01;100821.63;;;15.89;87.87
82262;BME280;71861;52.364;6.580;2023-07-31T04:13:26;100813.56;;;15.90;88.20
82262;BME280;71861;52.364;6.580;2023-07-31T04:15:52;100808.34;;;15.90;88.06
82262;BME280;71861;52.364;6.580;2023-07-31T04:18:19;100819.25;;;15.94;87.86
82262;BME280;71861;52.364;6.580;2023-07-31T04:20:44;100819.06;;;15.95;87.70
82262;BME280;71861;52.364;6.580;2023-07-31T04:23:10;100821.69;;;15.95;87.92
82262;BME280;71861;52.364;6.580;2023-07-31T04:25:35;100819.69;;;15.97;87.56
82262;BME280;71861;52.364;6.580;2023-07-31T04:28:01;100808.38;;;15.97;87.66
82262;BME280;71861;52.364;6.580;2023-07-31T04:30:26;100808.38;;;15.97;87.42
82262;BME280;71861;52.364;6.580;2023-07-31T04:32:51;100811.00;;;15.97;87.61
82262;BME280;71861;52.364;6.580;2023-07-31T04:35:17;100807.56;;;15.96;87.51
82262;BME280;71861;52.364;6.580;2023-07-31T04:37:42;100807.75;;;15.95;87.68
82262;BME280;71861;52.364;6.580;2023-07-31T04:40:08;100811.00;;;15.97;87.75
82262;BME280;71861;52.364;6.580;2023-07-31T04:42:33;100816.03;;;15.98;87.27
82262;BME280;71861;52.364;6.580;2023-07-31T04:44:59;100809.97;;;15.98;87.58
82262;BME280;71861;52.364;6.580;2023-07-31T04:47:25;100809.38;;;15.96;87.52
82262;BME280;71861;52.364;6.580;2023-07-31T04:49:50;100805.13;;;15.95;87.33
82262;BME280;71861;52.364;6.580;2023-07-31T04:52:15;100802.31;;;15.96;87.43
82262;BME280;71861;52.364;6.580;2023-07-31T04:54:41;100803.53;;;15.94;87.27
82262;BME280;71861;52.364;6.580;2023-07-31T04:57:06;100798.66;;;15.91;87.25
82262;BME280;71861;52.364;6.580;2023-07-31T04:59:31;100792.00;;;15.88;87.45
82262;BME280;71861;52.364;6.580;2023-07-31T05:01:57;100792.81;;;15.89;87.55
82262;BME280;71861;52.364;6.580;2023-07-31T05:04:22;100789.19;;;15.90;87.23
82262;BME280;71861;52.364;6.580;2023-07-31T05:06:47;100789.78;;;15.92;87.38
82262;BME280;71861;52.364;6.580;2023-07-31T05:09:13;100776.88;;;15.90;87.05
82262;BME280;71861;52.364;6.580;2023-07-31T05:11:38;100776.88;;;15.90;87.03
82262;BME280;71861;52.364;6.580;2023-07-31T05:14:05;100787.19;;;15.92;86.90
82262;BME280;71861;52.364;6.580;2023-07-31T05:16:31;100780.53;;;15.89;86.82
82262;BME280;71861;52.364;6.580;2023-07-31T05:18:56;100782.31;;;15.89;86.72
82262;BME280;71861;52.364;6.580;2023-07-31T05:21:21;100783.53;;;15.86;86.60
82262;BME280;71861;52.364;6.580;2023-07-31T05:23:47;100784.16;;;15.88;86.69
82262;BME280;71861;52.364;6.580;2023-07-31T05:26:13;100784.16;;;15.88;86.68
82262;BME280;71861;52.364;6.580;2023-07-31T05:28:38;100782.31;;;15.89;86.75
82262;BME280;71861;52.364;6.580;2023-07-31T05:31:04;100784.56;;;15.92;86.33
82262;BME280;71861;52.364;6.580;2023-07-31T05:33:30;100785.19;;;15.94;86.43
82262;BME280;71861;52.364;6.580;2023-07-31T05:35:56;100779.94;;;15.94;86.26
82262;BME280;71861;52.364;6.580;2023-07-31T05:38:21;100779.56;;;15.97;86.12
82262;BME280;71861;52.364;6.580;2023-07-31T05:40:47;100784.59;;;15.98;86.01
82262;BME280;71861;52.364;6.580;2023-07-31T05:43:12;100777.56;;;15.99;86.03
82262;BME280;71861;52.364;6.580;2023-07-31T05:45:38;100782.16;;;15.97;85.85
82262;BME280;71861;52.364;6.580;2023-07-31T05:48:03;100775.91;;;15.98;85.76
82262;BME280;71861;52.364;6.580;2023-07-31T05:50:30;100773.28;;;15.98;85.64
82262;BME280;71861;52.364;6.580;2023-07-31T05:52:55;100771.28;;;16.00;85.72
82262;BME280;71861;52.364;6.580;2023-07-31T05:55:20;100766.88;;;16.00;85.27
82262;BME280;71861;52.364;6.580;2023-07-31T05:57:46;100763.03;;;16.03;85.42
82262;BME280;71861;52.364;6.580;2023-07-31T06:00:12;100769.72;;;16.05;85.58
82262;BME280;71861;52.364;6.580;2023-07-31T06:02:38;100762.06;;;16.10;85.37
82262;BME280;71861;52.364;6.580;2023-07-31T06:05:04;100760.88;;;16.19;85.54
82262;BME280;71861;52.364;6.580;2023-07-31T06:07:31;100753.06;;;16.26;85.05
82262;BME280;71861;52.364;6.580;2023-07-31T06:09:57;100758.31;;;16.26;84.58
82262;BME280;71861;52.364;6.580;2023-07-31T06:12:27;100764.56;;;16.25;84.76
82262;BME280;71861;52.364;6.580;2023-07-31T06:14:52;100762.94;;;16.24;85.02
82262;BME280;71861;52.364;6.580;2023-07-31T06:17:17;100756.84;;;16.17;85.00
82262;BME280;71861;52.364;6.580;2023-07-31T06:19:43;100750.78;;;16.10;84.88
82262;BME280;71861;52.364;6.580;2023-07-31T06:22:09;100758.84;;;16.08;85.22
82262;BME280;71861;52.364;6.580;2023-07-31T06:24:34;100757.81;;;16.03;85.55
82262;BME280;71861;52.364;6.580;2023-07-31T06:26:59;100749.72;;;15.98;85.57
82262;BME280;71861;52.364;6.580;2023-07-31T06:29:24;100756.16;;;15.95;85.71
82262;BME280;71861;52.364;6.580;2023-07-31T06:31:50;100757.38;;;15.93;85.54
82262;BME280;71861;52.364;6.580;2023-07-31T06:34:15;100745.63;;;15.89;85.79
82262;BME280;71861;52.364;6.580;2023-07-31T06:36:40;100752.72;;;15.88;86.26
82262;BME280;71861;52.364;6.580;2023-07-31T06:39:06;100749.06;;;15.89;85.87
82262;BME280;71861;52.364;6.580;2023-07-31T06:41:31;100747.28;;;15.90;85.81
82262;BME280;71861;52.364;6.580;2023-07-31T06:43:56;100743.63;;;15.91;85.94
82262;BME280;71861;52.364;6.580;2023-07-31T06:46:22;100760.38;;;15.90;85.79
82262;BME280;71861;52.364;6.580;2023-07-31T06:48:47;100744.84;;;15.88;86.01
82262;BME280;71861;52.364;6.580;2023-07-31T06:51:12;100748.66;;;15.86;86.11
82262;BME280;71861;52.364;6.580;2023-07-31T06:53:38;100748.66;;;15.86;86.24
82262;BME280;71861;52.364;6.580;2023-07-31T06:56:04;100740.78;;;15.86;86.29
82262;BME280;71861;52.364;6.580;2023-07-31T06:58:29;100733.53;;;15.88;86.47
82262;BME280;71861;52.364;6.580;2023-07-31T07:00:54;100736.22;;;15.94;86.19
82262;BME280;71861;52.364;6.580;2023-07-31T07:03:20;100736.22;;;16.01;86.27
82262;BME280;71861;52.364;6.580;2023-07-31T07:05:45;100727.59;;;16.07;86.18
82262;BME280;71861;52.364;6.580;2023-07-31T07:08:11;100725.16;;;16.12;86.05
82262;BME280;71861;52.364;6.580;2023-07-31T07:10:37;100724.59;;;16.16;85.84
82262;BME280;71861;52.364;6.580;2023-07-31T07:13:02;100718.16;;;16.19;86.11
82262;BME280;71861;52.364;6.580;2023-07-31T07:15:27;100714.13;;;16.23;85.90
82262;BME280;71861;52.364;6.580;2023-07-31T07:17:53;100714.75;;;16.25;85.96
82262;BME280;71861;52.364;6.580;2023-07-31T07:20:19;100714.34;;;16.28;85.60
82262;BME280;71861;52.364;6.580;2023-07-31T07:22:45;100716.97;;;16.28;86.01
82262;BME280;71861;52.364;6.580;2023-07-31T07:25:10;100703.88;;;16.28;86.08
82262;BME280;71861;52.364;6.580;2023-07-31T07:27:36;100706.69;;;16.33;86.23
82262;BME280;71861;52.364;6.580;2023-07-31T07:30:01;100695.41;;;16.39;86.13
82262;BME280;71861;52.364;6.580;2023-07-31T07:32:26;100691.38;;;16.43;86.05
82262;BME280;71861;52.364;6.580;2023-07-31T07:34:52;100691.63;;;16.48;86.12
82262;BME280;71861;52.364;6.580;2023-07-31T07:37:17;100684.38;;;16.50;85.92
82262;BME280;71861;52.364;6.580;2023-07-31T07:39:43;100694.47;;;16.53;85.84
82262;BME280;71861;52.364;6.580;2023-07-31T07:42:08;100681.16;;;16.54;85.77
82262;BME280;71861;52.364;6.580;2023-07-31T07:44:34;100682.38;;;16.58;85.97
82262;BME280;71861;52.364;6.580;2023-07-31T07:46:59;100675.91;;;16.61;85.98
82262;BME280;71861;52.364;6.580;2023-07-31T07:49:24;100682.78;;;16.69;85.84
82262;BME280;71861;52.364;6.580;2023-07-31T07:51:50;100673.09;;;16.76;85.93
82262;BME280;71861;52.364;6.580;2023-07-31T07:54:15;100680.97;;;16.82;86.17
82262;BME280;71861;52.364;6.580;2023-07-31T07:56:42;100677.53;;;16.88;86.21
82262;BME280;71861;52.364;6.580;2023-07-31T07:59:08;100672.28;;;16.95;85.81
82262;BME280;71861;52.364;6.580;2023-07-31T08:01:33;100663.81;;;16.99;85.95
82262;BME280;71861;52.364;6.580;2023-07-31T08:03:59;100665.41;;;17.00;85.35
82262;BME280;71861;52.364;6.580;2023-07-31T08:06:24;100656.50;;;17.01;85.75
82262;BME280;71861;52.364;6.580;2023-07-31T08:08:49;100663.41;;;17.02;86.04
82262;BME280;71861;52.364;6.580;2023-07-31T08:11:15;100660.97;;;17.07;86.11
82262;BME280;71861;52.364;6.580;2023-07-31T08:13:40;100650.84;;;17.11;86.02
82262;BME280;71861;52.364;6.580;2023-07-31T08:16:05;100652.28;;;17.07;85.81
82262;BME280;71861;52.364;6.580;2023-07-31T08:18:31;100662.78;;;17.07;85.95
82262;BME280;71861;52.364;6.580;2023-07-31T08:20:57;100659.13;;;17.08;85.80
82262;BME280;71861;52.364;6.580;2023-07-31T08:23:22;100657.94;;;17.10;85.88
82262;BME280;71861;52.364;6.580;2023-07-31T08:25:48;100650.06;;;17.10;85.87
82262;BME280;71861;52.364;6.580;2023-07-31T08:28:15;100654.09;;;17.13;85.88
82262;BME280;71861;52.364;6.580;2023-07-31T08:30:40;100648.03;;;17.12;85.66
82262;BME280;71861;52.364;6.580;2023-07-31T08:33:06;100652.50;;;17.12;85.89
82262;BME280;71861;52.364;6.580;2023-07-31T08:35:32;100652.09;;;17.08;86.02
82262;BME280;71861;52.364;6.580;2023-07-31T08:37:57;100644.81;;;17.10;86.10
82262;BME280;71861;52.364;6.580;2023-07-31T08:40:22;100642.00;;;17.12;85.96
82262;BME280;71861;52.364;6.580;2023-07-31T08:42:49;100644.81;;;17.10;85.99
82262;BME280;71861;52.364;6.580;2023-07-31T08:45:17;100639.56;;;17.10;86.03
82262;BME280;71861;52.364;6.580;2023-07-31T08:47:44;100646.84;;;17.08;86.38
82262;BME280;71861;52.364;6.580;2023-07-31T08:50:12;100644.81;;;17.10;86.49
82262;BME280;71861;52.364;6.580;2023-07-31T08:52:38;100645.03;;;17.09;86.69
82262;BME280;71861;52.364;6.580;2023-07-31T08:55:05;100638.75;;;17.10;86.58
82262;BME280;71861;52.364;6.580;2023-07-31T08:57:31;100632.69;;;17.09;86.50
82262;BME280;71861;52.364;6.580;2023-07-31T08:59:57;100637.94;;;17.09;86.96
82262;BME280;71861;52.364;6.580;2023-07-31T09:02:24;100642.00;;;17.12;87.09
82262;BME280;71861;52.364;6.580;2023-07-31T09:04:51;100640.34;;;17.17;86.87
82262;BME280;71861;52.364;6.580;2023-07-31T09:07:17;100639.13;;;17.20;86.60
82262;BME280;71861;52.364;6.580;2023-07-31T09:09:42;100636.28;;;17.21;86.75
82262;BME280;71861;52.364;6.580;2023-07-31T09:12:07;100637.50;;;17.25;86.68
82262;BME280;71861;52.364;6.580;2023-07-31T09:14:33;100629.00;;;17.30;86.66
82262;BME280;71861;52.364;6.580;2023-07-31T09:16:59;100629.84;;;17.30;86.73
82262;BME280;71861;52.364;6.580;2023-07-31T09:19:33;100637.09;;;17.28;86.72
82262;BME280;71861;52.364;6.580;2023-07-31T09:22:00;100629.84;;;17.30;86.81
82262;BME280;71861;52.364;6.580;2023-07-31T09:24:30;100630.00;;;17.35;87.15
82262;BME280;71861;52.364;6.580;2023-07-31T09:26:57;100637.66;;;17.37;86.63
82262;BME280;71861;52.364;6.580;2023-07-31T09:29:24;100626.38;;;17.36;86.88
82262;BME280;71861;52.364;6.580;2023-07-31T09:31:50;100628.19;;;17.36;86.69
82262;BME280;71861;52.364;6.580;2023-07-31T09:34:16;100632.22;;;17.38;86.80
82262;BME280;71861;52.364;6.580;2023-07-31T09:39:11;100616.88;;;17.48;86.94
82262;BME280;71861;52.364;6.580;2023-07-31T09:41:45;100616.88;;;17.48;86.76
82262;BME280;71861;52.364;6.580;2023-07-31T09:44:11;100621.06;;;17.56;86.74
82262;BME280;71861;52.364;6.580;2023-07-31T09:46:37;100619.06;;;17.58;86.55
82262;BME280;71861;52.364;6.580;2023-07-31T09:49:12;100620.06;;;17.57;86.48
82262;BME280;71861;52.364;6.580;2023-07-31T09:51:39;100624.09;;;17.59;86.46
82262;BME280;71861;52.364;6.580;2023-07-31T09:54:12;100605.09;;;17.57;86.37
82262;BME280;71861;52.364;6.580;2023-07-31T09:59:07;100610.34;;;17.57;86.64
82262;BME280;71861;52.364;6.580;2023-07-31T10:01:35;100605.72;;;17.59;86.89
82262;BME280;71861;52.364;6.580;2023-07-31T10:04:01;100611.72;;;17.66;86.74
82262;BME280;71861;52.364;6.580;2023-07-31T10:06:27;100592.50;;;17.72;86.79
82262;BME280;71861;52.364;6.580;2023-07-31T10:08:54;100591.66;;;17.78;86.79
82262;BME280;71861;52.364;6.580;2023-07-31T10:11:20;100597.69;;;17.85;86.73
82262;BME280;71861;52.364;6.580;2023-07-31T10:13:47;100593.84;;;17.88;86.24
82262;BME280;71861;52.364;6.580;2023-07-31T10:16:13;100584.88;;;17.95;86.25
82262;BME280;71861;52.364;6.580;2023-07-31T10:18:39;100598.84;;;17.96;86.11
82262;BME280;71861;52.364;6.580;2023-07-31T10:21:05;100596.44;;;17.94;86.58
82262;BME280;71861;52.364;6.580;2023-07-31T10:23:31;100605.47;;;18.05;86.87
82262;BME280;71861;52.364;6.580;2023-07-31T10:25:58;100589.06;;;18.09;86.14
82262;BME280;71861;52.364;6.580;2023-07-31T10:28:24;100596.34;;;18.07;86.13
82262;BME280;71861;52.364;6.580;2023-07-31T10:30:50;100598.19;;;18.07;85.62
82262;BME280;71861;52.364;6.580;2023-07-31T10:33:17;100587.44;;;18.08;85.86
82262;BME280;71861;52.364;6.580;2023-07-31T10:35:43;100592.09;;;18.06;85.60
82262;BME280;71861;52.364;6.580;2023-07-31T10:38:12;100592.91;;;18.07;85.57
82262;BME280;71861;52.364;6.580;2023-07-31T10:40:38;100592.50;;;18.10;85.70
82262;BME280;71861;52.364;6.580;2023-07-31T10:43:04;100591.44;;;18.17;85.94
82262;BME280;71861;52.364;6.580;2023-07-31T10:50:29;100583.72;;;18.22;85.23
82262;BME280;71861;52.364;6.580;2023-07-31T10:52:56;100581.72;;;18.18;85.48
82262;BME280;71861;52.364;6.580;2023-07-31T10:58:13;100578.25;;;18.24;85.49
82262;BME280;71861;52.364;6.580;2023-07-31T11:00:40;100570.56;;;18.22;85.59
82262;BME280;71861;52.364;6.580;2023-07-31T11:03:13;100584.50;;;18.23;85.46
82262;BME280;71861;52.364;6.580;2023-07-31T11:10:44;100571.13;;;18.24;85.14
82262;BME280;71861;52.364;6.580;2023-07-31T11:13:10;100578.47;;;18.22;85.07
82262;BME280;71861;52.364;6.580;2023-07-31T11:15:35;100578.59;;;18.27;85.15
82262;BME280;71861;52.364;6.580;2023-07-31T11:18:01;100581.84;;;18.29;84.92
82262;BME280;71861;52.364;6.580;2023-07-31T11:20:36;100580.84;;;18.31;85.08
82262;BME280;71861;52.364;6.580;2023-07-31T11:23:03;100569.88;;;18.34;85.01
82262;BME280;71861;52.364;6.580;2023-07-31T11:25:30;100579.84;;;18.25;84.74
82262;BME280;71861;52.364;6.580;2023-07-31T11:27:56;100572.97;;;18.24;85.20
82262;BME280;71861;52.364;6.580;2023-07-31T11:30:22;100576.41;;;18.24;85.11
82262;BME280;71861;52.364;6.580;2023-07-31T11:32:48;100581.66;;;18.24;85.13
82262;BME280;71861;52.364;6.580;2023-07-31T11:35:13;100588.97;;;18.22;84.94
82262;BME280;71861;52.364;6.580;2023-07-31T11:37:42;100575.66;;;18.17;84.98
82262;BME280;71861;52.364;6.580;2023-07-31T11:40:09;100577.25;;;18.18;85.22
82262;BME280;71861;52.364;6.580;2023-07-31T11:42:35;100575.41;;;18.25;85.08
82262;BME280;71861;52.364;6.580;2023-07-31T11:45:08;100582.25;;;18.26;84.72
82262;BME280;71861;52.364;6.580;2023-07-31T11:47:36;100571.94;;;18.25;85.43
82262;BME280;71861;52.364;6.580;2023-07-31T11:50:05;100575.81;;;18.22;84.94
82262;BME280;71861;52.364;6.580;2023-07-31T11:52:36;100569.09;;;18.26;85.12
82262;BME280;71861;52.364;6.580;2023-07-31T11:55:04;100575.97;;;18.27;84.77
82262;BME280;71861;52.364;6.580;2023-07-31T11:57:30;100584.69;;;18.28;84.98
82262;BME280;71861;52.364;6.580;2023-07-31T11:59:56;100581.03;;;18.29;84.92
82262;BME280;71861;52.364;6.580;2023-07-31T12:02:22;100580.97;;;18.36;84.87
82262;BME280;71861;52.364;6.580;2023-07-31T12:04:47;100578.56;;;18.34;84.77
82262;BME280;71861;52.364;6.580;2023-07-31T12:07:13;100574.72;;;18.37;84.79
82262;BME280;71861;52.364;6.580;2023-07-31T12:09:50;100577.56;;;18.35;85.13
82262;BME280;71861;52.364;6.580;2023-07-31T12:12:23;100575.97;;;18.27;84.90
82262;BME280;71861;52.364;6.580;2023-07-31T12:14:48;100569.06;;;18.33;84.89
82262;BME280;71861;52.364;6.580;2023-07-31T12:17:15;100576.34;;;18.38;85.04
82262;BME280;71861;52.364;6.580;2023-07-31T12:19:41;100571.81;;;18.45;85.09
82262;BME280;71861;52.364;6.580;2023-07-31T12:22:13;100569.53;;;18.55;84.99
82262;BME280;71861;52.364;6.580;2023-07-31T12:24:43;100558.50;;;18.64;84.79
82262;BME280;71861;52.364;6.580;2023-07-31T12:27:14;100563.50;;;18.72;84.14
82262;BME280;71861;52.364;6.580;2023-07-31T12:29:40;100567.69;;;18.80;84.51
82262;BME280;71861;52.364;6.580;2023-07-31T12:32:26;100567.81;;;18.85;84.02
82262;BME280;71861;52.364;6.580;2023-07-31T12:34:59;100570.31;;;18.80;83.58
82262;BME280;71861;52.364;6.580;2023-07-31T12:37:24;100574.03;;;18.72;83.64
82262;BME280;71861;52.364;6.580;2023-07-31T12:39:50;100567.13;;;18.71;84.19
82262;BME280;71861;52.364;6.580;2023-07-31T12:42:17;100550.56;;;18.71;83.95
82262;BME280;71861;52.364;6.580;2023-07-31T12:44:42;100566.91;;;18.73;84.23
82262;BME280;71861;52.364;6.580;2023-07-31T12:47:08;100565.03;;;18.80;84.49
82262;BME280;71861;52.364;6.580;2023-07-31T12:49:33;100562.41;;;18.80;84.50
82262;BME280;71861;52.364;6.580;2023-07-31T12:51:58;100553.69;;;18.79;84.15
82262;BME280;71861;52.364;6.580;2023-07-31T12:54:23;100564.50;;;18.71;84.07
82262;BME280;71861;52.364;6.580;2023-07-31T12:56:49;100563.19;;;18.62;84.32
82262;BME280;71861;52.364;6.580;2023-07-31T12:59:14;100559.16;;;18.60;84.92
82262;BME280;71861;52.364;6.580;2023-07-31T13:01:39;100559.00;;;18.55;84.35
82262;BME280;71861;52.364;6.580;2023-07-31T13:04:05;100549.94;;;18.51;84.71
82262;BME280;71861;52.364;6.580;2023-07-31T13:06:30;100538.22;;;18.47;84.86
82262;BME280;71861;52.364;6.580;2023-07-31T13:08:55;100538.22;;;18.47;85.05
82262;BME280;71861;52.364;6.580;2023-07-31T13:11:21;100537.63;;;18.45;85.00
82262;BME280;71861;52.364;6.580;2023-07-31T13:13:46;100538.25;;;18.40;85.38
82262;BME280;71861;52.364;6.580;2023-07-31T13:16:11;100524.72;;;18.37;85.60
82262;BME280;71861;52.364;6.580;2023-07-31T13:18:37;100532.63;;;18.37;85.44
82262;BME280;71861;52.364;6.580;2023-07-31T13:21:02;100526.53;;;18.43;85.85
82262;BME280;71861;52.364;6.580;2023-07-31T13:23:27;100530.50;;;18.52;85.19
82262;BME280;71861;52.364;6.580;2023-07-31T13:25:53;100529.03;;;18.56;85.34
82262;BME280;71861;52.364;6.580;2023-07-31T13:28:18;100525.75;;;18.60;85.01
82262;BME280;71861;52.364;6.580;2023-07-31T13:30:43;100519.38;;;18.68;85.09
82262;BME280;71861;52.364;6.580;2023-07-31T13:33:09;100525.03;;;18.71;84.71
82262;BME280;71861;52.364;6.580;2023-07-31T13:35:34;100517.94;;;18.72;84.54
82262;BME280;71861;52.364;6.580;2023-07-31T13:37:59;100529.06;;;18.74;84.12
82262;BME280;71861;52.364;6.580;2023-07-31T13:40:25;100535.50;;;18.78;84.11
82262;BME280;71861;52.364;6.580;2023-07-31T13:42:50;100540.31;;;18.81;84.15
82262;BME280;71861;52.364;6.580;2023-07-31T13:45:15;100544.78;;;18.80;84.49
82262;BME280;71861;52.364;6.580;2023-07-31T13:47:40;100548.50;;;18.73;83.24
82262;BME280;71861;52.364;6.580;2023-07-31T13:50:06;100550.97;;;18.68;84.11
82262;BME280;71861;52.364;6.580;2023-07-31T13:52:31;100548.63;;;18.60;83.91
82262;BME280;71861;52.364;6.580;2023-07-31T13:54:57;100543.66;;;18.52;84.12
82262;BME280;71861;52.364;6.580;2023-07-31T13:57:22;100531.91;;;18.48;84.47
82262;BME280;71861;52.364;6.580;2023-07-31T13:59:48;100531.34;;;18.46;84.39
82262;BME280;71861;52.364;6.580;2023-07-31T14:02:14;100534.16;;;18.51;84.67
82262;BME280;71861;52.364;6.580;2023-07-31T14:04:40;100536.91;;;18.56;84.42
82262;BME280;71861;52.364;6.580;2023-07-31T14:07:05;100530.78;;;18.62;84.53
82262;BME280;71861;52.364;6.580;2023-07-31T14:09:31;100532.53;;;18.68;84.49
82262;BME280;71861;52.364;6.580;2023-07-31T14:11:56;100529.19;;;18.79;84.22
82262;BME280;71861;52.364;6.580;2023-07-31T14:14:21;100533.03;;;18.83;84.02
82262;BME280;71861;52.364;6.580;2023-07-31T14:16:47;100533.75;;;18.90;83.53
82262;BME280;71861;52.364;6.580;2023-07-31T14:19:12;100531.72;;;18.92;83.65
82262;BME280;71861;52.364;6.580;2023-07-31T14:21:37;100524.84;;;18.91;83.37
82262;BME280;71861;52.364;6.580;2023-07-31T14:24:03;100508.66;;;18.87;83.03
82262;BME280;71861;52.364;6.580;2023-07-31T14:26:28;100507.25;;;18.85;83.21
82262;BME280;71861;52.364;6.580;2023-07-31T14:28:54;100506.69;;;18.83;83.64
82262;BME280;71861;52.364;6.580;2023-07-31T14:31:19;100516.78;;;18.86;83.49
82262;BME280;71861;52.364;6.580;2023-07-31T14:33:45;100500.91;;;18.74;83.76
82262;BME280;71861;52.364;6.580;2023-07-31T14:36:10;100499.38;;;18.67;83.55
82262;BME280;71861;52.364;6.580;2023-07-31T14:38:35;100500.84;;;18.63;83.51
82262;BME280;71861;52.364;6.580;2023-07-31T14:41:01;100492.19;;;18.56;83.55
82262;BME280;71861;52.364;6.580;2023-07-31T14:43:26;100500.94;;;18.50;83.76
82262;BME280;71861;52.364;6.580;2023-07-31T14:45:52;100502.97;;;18.48;84.28
82262;BME280;71861;52.364;6.580;2023-07-31T14:48:18;100498.97;;;18.45;83.92
82262;BME280;71861;52.364;6.580;2023-07-31T14:50:46;100494.13;;;18.42;84.33
82262;BME280;71861;52.364;6.580;2023-07-31T14:53:11;100490.84;;;18.47;84.22
82262;BME280;71861;52.364;6.580;2023-07-31T14:55:37;100499.56;;;18.47;84.47
82262;BME280;71861;52.364;6.580;2023-07-31T14:58:02;100494.97;;;18.43;84.74
82262;BME280;71861;52.364;6.580;2023-07-31T15:00:28;100493.75;;;18.39;84.69
82262;BME280;71861;52.364;6.580;2023-07-31T15:02:53;100496.22;;;18.34;85.18
82262;BME280;71861;52.364;6.580;2023-07-31T15:05:19;100486.53;;;18.27;85.20
82262;BME280;71861;52.364;6.580;2023-07-31T15:07:44;100479.53;;;18.21;85.47
82262;BME280;71861;52.364;6.580;2023-07-31T15:10:09;100473.75;;;18.13;85.75
82262;BME280;71861;52.364;6.580;2023-07-31T15:12:35;100468.09;;;18.09;85.65
82262;BME280;71861;52.364;6.580;2023-07-31T15:15:03;100464.31;;;18.05;86.51
82262;BME280;71861;52.364;6.580;2023-07-31T15:17:28;100465.50;;;18.03;85.92
82262;BME280;71861;52.364;6.580;2023-07-31T15:19:55;100464.34;;;17.99;87.09
82262;BME280;71861;52.364;6.580;2023-07-31T15:22:20;100459.31;;;17.97;86.94
82262;BME280;71861;52.364;6.580;2023-07-31T15:24:45;100462.16;;;17.96;87.34
82262;BME280;71861;52.364;6.580;2023-07-31T15:27:10;100455.06;;;17.96;87.15
82262;BME280;71861;52.364;6.580;2023-07-31T15:29:36;100454.03;;;17.97;87.19
82262;BME280;71861;52.364;6.580;2023-07-31T15:32:04;100457.28;;;17.99;87.12
82262;BME280;71861;52.364;6.580;2023-07-31T15:34:29;100449.19;;;18.01;87.00
82262;BME280;71861;52.364;6.580;2023-07-31T15:36:55;100455.22;;;18.01;86.81
82262;BME280;71861;52.364;6.580;2023-07-31T15:39:20;100445.94;;;17.99;86.82
82262;BME280;71861;52.364;6.580;2023-07-31T15:41:45;100446.75;;;17.99;86.80
82262;BME280;71861;52.364;6.580;2023-07-31T15:44:11;100442.28;;;18.00;87.12
82262;BME280;71861;52.364;6.580;2023-07-31T15:46:36;100427.09;;;18.02;86.69
82262;BME280;71861;52.364;6.580;2023-07-31T15:49:01;100416.22;;;17.98;86.98
82262;BME280;71861;52.364;6.580;2023-07-31T15:51:27;100418.06;;;17.98;86.73
82262;BME280;71861;52.364;6.580;2023-07-31T15:53:52;100414.63;;;17.97;86.83
82262;BME280;71861;52.364;6.580;2023-07-31T15:56:18;100391.38;;;17.94;87.10
82262;BME280;71861;52.364;6.580;2023-07-31T15:58:43;100409.19;;;17.92;87.10
82262;BME280;71861;52.364;6.580;2023-07-31T16:01:09;100395.47;;;17.90;87.19